Time;durP1;ratioP1;P1;durP2;ratioP2;P2;SDS_P1;SDS_P2;PMS_P1;PMS_P2;Temp;Humidity;BMP_temperature;BMP_pressure;BME280_temperature;BME280_humidity;BME280_pressure;Samples;Min_cycle;Max_cycle;Signal;HPM_P1;HPM_P2
2021/12/27 00:00:56;;;;;;;38.80;22.08;;;-5.00;99.90;;;;;;5072202;28;20187;-49
2021/12/27 00:03:23;;;;;;;43.63;21.92;;;-5.00;99.90;;;;;;5072030;28;20199;-48
2021/12/27 00:05:50;;;;;;;42.75;24.10;;;-5.00;99.90;;;;;;5071577;28;20199;-48
2021/12/27 00:08:16;;;;;;;39.72;22.27;;;-4.80;99.90;;;;;;5071801;28;20198;-48
2021/12/27 00:10:43;;;;;;;42.35;22.17;;;-4.90;99.90;;;;;;5071728;28;20241;-48
2021/12/27 00:13:10;;;;;;;45.75;23.20;;;-5.00;99.90;;;;;;5071701;28;20195;-49
2021/12/27 00:15:39;;;;;;;46.50;24.10;;;-5.00;99.90;;;;;;5071689;28;20199;-48
2021/12/27 00:18:06;;;;;;;53.72;24.70;;;-5.00;99.90;;;;;;5071512;28;20214;-48
2021/12/27 00:20:32;;;;;;;46.30;22.80;;;-5.00;99.90;;;;;;5070928;28;20679;-48
2021/12/27 00:22:59;;;;;;;53.10;23.67;;;-5.00;99.90;;;;;;5071734;28;20191;-48
2021/12/27 00:25:26;;;;;;;43.55;21.63;;;-5.00;99.90;;;;;;5071710;28;20199;-48
2021/12/27 00:27:53;;;;;;;42.80;24.00;;;-5.00;99.90;;;;;;5071254;28;20354;-48
2021/12/27 00:30:21;;;;;;;43.80;23.60;;;-5.00;99.90;;;;;;5053159;28;20751;-48
2021/12/27 00:32:49;;;;;;;41.97;23.40;;;-5.00;99.90;;;;;;5071703;28;20204;-48
2021/12/27 00:35:18;;;;;;;46.40;24.30;;;-5.00;99.90;;;;;;5071546;28;20202;-48
2021/12/27 00:37:45;;;;;;;49.75;25.70;;;-5.00;99.90;;;;;;5071228;28;20280;-48
2021/12/27 00:40:13;;;;;;;45.33;22.60;;;-5.00;99.90;;;;;;5071467;28;20210;-48
2021/12/27 00:42:40;;;;;;;46.50;24.23;;;-5.00;99.90;;;;;;5071650;28;20278;-48
2021/12/27 00:45:08;;;;;;;43.20;25.85;;;-4.90;99.90;;;;;;5071287;28;20196;-48
2021/12/27 00:47:34;;;;;;;46.30;24.33;;;-5.00;99.90;;;;;;5053384;28;20230;-49
2021/12/27 00:50:03;;;;;;;43.55;24.27;;;-5.00;99.90;;;;;;5071040;28;20191;-50
2021/12/27 00:52:32;;;;;;;47.47;25.05;;;-5.00;99.90;;;;;;5071450;28;20214;-49
2021/12/27 00:54:59;;;;;;;47.67;25.67;;;-5.00;99.90;;;;;;5071181;28;20206;-49
2021/12/27 00:57:25;;;;;;;46.28;26.38;;;-4.90;99.90;;;;;;5071206;28;20687;-49
2021/12/27 00:59:52;;;;;;;43.70;23.77;;;-5.00;99.90;;;;;;5070928;28;20207;-49
2021/12/27 01:02:19;;;;;;;47.30;24.83;;;-4.90;99.90;;;;;;5071312;28;20558;-49
2021/12/27 01:04:45;;;;;;;47.63;27.27;;;-5.00;99.90;;;;;;5071459;28;20203;-49
2021/12/27 01:07:13;;;;;;;48.38;24.15;;;-4.90;99.90;;;;;;5071164;28;20223;-49
2021/12/27 01:09:54;;;;;;;49.85;25.92;;;-5.00;99.90;;;;;;5052936;28;20199;-49
2021/12/27 01:12:31;;;;;;;44.38;25.63;;;-5.00;99.90;;;;;;5071249;28;20195;-49
2021/12/27 01:15:12;;;;;;;48.42;25.80;;;-4.90;99.90;;;;;;5071370;28;20227;-49
2021/12/27 01:17:41;;;;;;;63.22;26.58;;;-4.90;99.90;;;;;;5070947;28;20215;-48
2021/12/27 01:20:11;;;;;;;49.08;27.42;;;-4.90;99.90;;;;;;5071315;28;20202;-48
2021/12/27 01:22:39;;;;;;;50.22;27.70;;;-4.90;99.90;;;;;;5071174;28;20199;-49
2021/12/27 01:25:09;;;;;;;52.60;27.25;;;-4.90;99.90;;;;;;5071194;28;20207;-48
2021/12/27 01:27:36;;;;;;;52.30;26.13;;;-4.90;99.90;;;;;;5070822;28;20676;-49
2021/12/27 01:30:06;;;;;;;52.97;27.83;;;-4.90;99.90;;;;;;5071038;28;20560;-49
2021/12/27 01:32:38;;;;;;;46.53;29.25;;;-4.90;99.90;;;;;;5074540;28;20214;-48
2021/12/27 01:35:06;;;;;;;48.15;28.08;;;-4.90;99.90;;;;;;5074758;28;20754;-49
2021/12/27 01:37:33;;;;;;;45.55;26.13;;;-4.90;99.90;;;;;;5074667;28;20242;-49
2021/12/27 01:40:01;;;;;;;56.97;28.67;;;-4.90;99.90;;;;;;5074491;28;20663;-49
2021/12/27 01:42:28;;;;;;;50.17;26.13;;;-4.90;99.90;;;;;;5074503;28;20195;-49
2021/12/27 01:44:55;;;;;;;52.08;28.63;;;-4.90;99.90;;;;;;5074742;28;20196;-48
2021/12/27 01:47:21;;;;;;;51.50;27.58;;;-4.90;99.90;;;;;;5074392;28;20222;-48
2021/12/27 01:49:48;;;;;;;53.40;27.92;;;-4.70;99.90;;;;;;5074206;28;20203;-49
2021/12/27 01:52:15;;;;;;;52.13;27.77;;;-4.80;99.90;;;;;;5074445;28;20219;-49
2021/12/27 01:54:41;;;;;;;53.10;27.98;;;-5.10;99.70;;;;;;5074456;28;20548;-49
2021/12/27 01:57:11;;;;;;;57.38;29.27;;;-4.80;99.80;;;;;;5056298;28;20417;-49
2021/12/27 01:59:38;;;;;;;58.03;28.77;;;-4.80;99.70;;;;;;5074254;28;20626;-48
2021/12/27 02:02:05;;;;;;;62.10;29.58;;;-4.80;99.70;;;;;;5074257;28;20191;-48
2021/12/27 02:04:31;;;;;;;54.40;28.73;;;-4.80;99.70;;;;;;5074241;28;20199;-49
2021/12/27 02:06:58;;;;;;;50.15;27.45;;;-4.70;99.80;;;;;;5074130;28;20219;-48
2021/12/27 02:09:33;;;;;;;56.47;29.80;;;-4.80;99.60;;;;;;5073966;28;20196;-49
2021/12/27 02:11:59;;;;;;;50.60;29.10;;;-4.90;99.90;;;;;;5074096;28;20699;-50
2021/12/27 02:14:28;;;;;;;75.45;37.92;;;-4.70;99.70;;;;;;5056209;28;20208;-49
2021/12/27 02:16:54;;;;;;;77.95;44.17;;;-4.80;99.60;;;;;;5073739;28;20222;-49
2021/12/27 02:19:21;;;;;;;78.70;36.00;;;-5.00;99.50;;;;;;5073585;28;20202;-48
2021/12/27 02:21:49;;;;;;;67.40;35.78;;;-4.70;99.70;;;;;;5073830;28;20519;-49
2021/12/27 02:24:15;;;;;;;67.43;35.45;;;-4.70;99.70;;;;;;5074082;28;20196;-48
2021/12/27 02:26:42;;;;;;;64.53;35.78;;;-4.70;99.60;;;;;;5073686;28;20219;-49
2021/12/27 02:29:09;;;;;;;61.70;35.35;;;-4.80;99.60;;;;;;5073368;28;20219;-49
2021/12/27 02:31:39;;;;;;;70.28;34.97;;;-4.80;99.50;;;;;;5055844;28;20237;-48
2021/12/27 02:34:08;;;;;;;82.50;39.53;;;-4.80;99.60;;;;;;5073749;28;20260;-49
2021/12/27 02:36:35;;;;;;;55.60;30.27;;;-4.80;99.60;;;;;;5073682;28;20227;-49
2021/12/27 02:39:04;;;;;;;60.08;30.52;;;-4.80;99.60;;;;;;5073103;28;20200;-48
2021/12/27 02:41:31;;;;;;;55.92;33.08;;;-4.70;99.70;;;;;;5073522;28;20656;-49
2021/12/27 02:43:57;;;;;;;82.63;38.75;;;-5.00;99.50;;;;;;5072620;28;20210;-48
2021/12/27 02:46:24;;;;;;;79.72;42.72;;;-4.70;99.60;;;;;;5073483;28;20568;-48
2021/12/27 02:48:50;;;;;;;98.50;46.17;;;-4.70;99.60;;;;;;5072905;28;20196;-49
2021/12/27 02:51:19;;;;;;;83.50;42.25;;;-4.70;99.50;;;;;;5073345;28;20207;-48
2021/12/27 02:53:46;;;;;;;76.40;40.10;;;-4.70;99.50;;;;;;5073206;28;20203;-49
2021/12/27 02:56:14;;;;;;;73.72;36.40;;;-4.60;99.60;;;;;;5073065;28;20219;-49
2021/12/27 02:58:41;;;;;;;74.00;41.47;;;-4.60;99.50;;;;;;5054793;28;20215;-49
2021/12/27 03:01:09;;;;;;;94.90;50.10;;;-4.60;99.50;;;;;;5073059;28;20192;-48
2021/12/27 03:03:37;;;;;;;113.53;60.30;;;-4.50;99.60;;;;;;5054952;28;20203;-49
2021/12/27 03:06:05;;;;;;;120.82;66.75;;;-4.50;99.60;;;;;;5073521;28;20286;-49
2021/12/27 03:08:32;;;;;;;114.10;61.40;;;-4.50;99.60;;;;;;5073502;28;20675;-48
2021/12/27 03:11:01;;;;;;;136.90;70.53;;;-4.40;99.60;;;;;;5072921;28;20569;-49
2021/12/27 03:13:33;;;;;;;108.90;56.67;;;-4.30;99.60;;;;;;5073026;28;20252;-49
2021/12/27 03:16:02;;;;;;;108.70;55.00;;;-4.30;99.50;;;;;;5055018;28;20314;-49
2021/12/27 03:18:30;;;;;;;84.10;42.80;;;-4.30;99.50;;;;;;5054370;28;20733;-49
2021/12/27 03:20:58;;;;;;;96.05;45.70;;;-4.40;99.40;;;;;;5054920;28;20245;-48
2021/12/27 03:23:25;;;;;;;72.35;35.97;;;-4.30;99.30;;;;;;5073083;28;20305;-48
2021/12/27 03:25:53;;;;;;;68.05;35.70;;;-4.30;99.30;;;;;;5072578;28;20218;-49
2021/12/27 03:28:21;;;;;;;66.03;34.80;;;-4.30;99.60;;;;;;5072244;28;20301;-48
2021/12/27 03:30:49;;;;;;;64.20;34.50;;;-4.30;99.30;;;;;;5072594;28;20207;-48
2021/12/27 03:33:17;;;;;;;53.55;31.45;;;-4.20;99.40;;;;;;5072458;28;20595;-48
2021/12/27 03:35:52;;;;;;;57.47;30.95;;;-4.20;99.30;;;;;;5072460;28;20240;-47
2021/12/27 03:38:19;;;;;;;55.08;32.55;;;-4.20;99.20;;;;;;5054113;28;20727;-48
2021/12/27 03:40:48;;;;;;;61.97;31.45;;;-4.20;99.20;;;;;;5072486;28;20199;-49
2021/12/27 03:43:15;;;;;;;59.47;33.25;;;-4.20;99.10;;;;;;5072345;28;20206;-49
2021/12/27 03:45:41;;;;;;;65.00;32.58;;;-4.10;99.20;;;;;;5072417;28;20529;-49
2021/12/27 03:48:11;;;;;;;59.95;29.95;;;-4.30;99.00;;;;;;5071890;28;20253;-49
2021/12/27 03:50:38;;;;;;;56.03;30.50;;;-4.30;99.00;;;;;;5072236;28;20191;-48
2021/12/27 03:53:06;;;;;;;61.60;32.22;;;-4.10;99.00;;;;;;5072297;28;20226;-48
2021/12/27 03:55:32;;;;;;;59.88;34.15;;;-4.10;99.00;;;;;;5071769;28;20575;-48
2021/12/27 03:58:07;;;;;;;68.65;34.53;;;-4.10;99.00;;;;;;5071759;28;20195;-48
2021/12/27 04:00:47;;;;;;;65.80;34.90;;;-4.00;99.10;;;;;;5071959;28;20273;-49
2021/12/27 04:03:16;;;;;;;64.50;33.92;;;-4.00;99.10;;;;;;5072093;28;20294;-49
2021/12/27 04:05:44;;;;;;;57.35;31.83;;;-4.00;99.00;;;;;;5071772;28;20202;-48
2021/12/27 04:08:10;;;;;;;62.08;32.42;;;-4.00;99.00;;;;;;5071709;28;20241;-48
2021/12/27 04:10:39;;;;;;;63.17;31.52;;;-4.00;98.90;;;;;;5071877;28;20199;-48
2021/12/27 04:13:06;;;;;;;61.88;29.48;;;-4.10;98.90;;;;;;5071825;28;20241;-48
2021/12/27 04:15:33;;;;;;;59.30;29.02;;;-4.00;98.90;;;;;;5071771;28;20195;-48
2021/12/27 04:18:00;;;;;;;51.88;26.70;;;-4.00;99.00;;;;;;5071630;28;20197;-48
2021/12/27 04:20:28;;;;;;;52.50;29.98;;;-3.90;98.90;;;;;;5071689;28;20191;-48
2021/12/27 04:22:55;;;;;;;55.38;28.73;;;-3.90;98.90;;;;;;5072187;28;20200;-48
2021/12/27 04:25:22;;;;;;;53.15;31.48;;;-3.90;98.70;;;;;;5071661;28;20203;-49
2021/12/27 04:27:51;;;;;;;48.58;27.67;;;-3.90;98.80;;;;;;5071822;28;20230;-48
2021/12/27 04:30:20;;;;;;;54.45;27.58;;;-3.90;98.80;;;;;;5071697;28;20206;-48
2021/12/27 04:32:47;;;;;;;47.75;27.67;;;-3.80;98.80;;;;;;5071593;28;20223;-49
2021/12/27 04:35:15;;;;;;;49.88;26.67;;;-3.80;98.70;;;;;;5071421;28;20214;-49
2021/12/27 04:37:44;;;;;;;51.67;26.98;;;-3.80;98.70;;;;;;5071143;28;20219;-49
2021/12/27 04:40:13;;;;;;;50.13;28.23;;;-3.80;98.60;;;;;;5071482;28;20565;-49
2021/12/27 04:42:44;;;;;;;52.90;31.58;;;-3.70;98.60;;;;;;5071582;28;20191;-48
2021/12/27 04:45:14;;;;;;;50.83;28.45;;;-3.70;98.50;;;;;;5071421;28;20192;-49
2021/12/27 04:47:41;;;;;;;57.03;28.80;;;-3.70;98.30;;;;;;5071325;28;20223;-49
2021/12/27 04:50:08;;;;;;;54.22;27.48;;;-3.60;98.30;;;;;;5071328;28;20222;-49
2021/12/27 04:52:35;;;;;;;54.83;29.95;;;-3.60;98.40;;;;;;5071516;28;20723;-49
2021/12/27 04:55:04;;;;;;;59.08;29.20;;;-3.60;98.50;;;;;;5071260;28;20206;-49
2021/12/27 04:57:31;;;;;;;60.13;28.25;;;-3.50;98.20;;;;;;5071382;28;20219;-48
2021/12/27 04:59:57;;;;;;;57.88;26.40;;;-3.50;98.10;;;;;;5071235;28;20222;-48
2021/12/27 05:02:24;;;;;;;58.00;28.92;;;-3.50;98.10;;;;;;5071851;28;20557;-49
2021/12/27 05:04:50;;;;;;;57.88;28.33;;;-3.50;98.10;;;;;;5071195;28;20199;-49
2021/12/27 05:07:17;;;;;;;53.92;28.00;;;-3.50;98.10;;;;;;5074904;28;20578;-49
2021/12/27 05:09:43;;;;;;;50.53;28.27;;;-3.50;98.10;;;;;;5074912;28;20203;-49
2021/12/27 05:12:12;;;;;;;63.47;29.80;;;-3.60;98.10;;;;;;5075316;28;20718;-49
2021/12/27 05:14:38;;;;;;;56.03;28.83;;;-3.40;98.10;;;;;;5075310;28;20195;-49
2021/12/27 05:17:05;;;;;;;55.78;28.23;;;-3.40;98.10;;;;;;5075064;28;20226;-49
2021/12/27 05:19:31;;;;;;;55.42;29.50;;;-3.40;98.10;;;;;;5074702;28;20257;-49
2021/12/27 05:21:58;;;;;;;61.05;29.40;;;-3.40;98.10;;;;;;5074799;28;20215;-49
2021/12/27 05:24:27;;;;;;;54.20;27.40;;;-3.40;98.10;;;;;;5074986;28;20549;-49
2021/12/27 05:26:54;;;;;;;54.42;28.67;;;-3.30;98.20;;;;;;5075204;28;20280;-48
2021/12/27 05:29:21;;;;;;;51.75;30.58;;;-3.30;98.20;;;;;;5074473;28;20270;-48
2021/12/27 05:31:48;;;;;;;50.00;27.85;;;-3.30;98.10;;;;;;5074590;28;20219;-48
2021/12/27 05:34:15;;;;;;;53.63;28.20;;;-3.30;98.20;;;;;;5074757;28;20460;-48
2021/12/27 05:36:42;;;;;;;55.88;27.85;;;-3.30;98.20;;;;;;5074404;28;20215;-47
2021/12/27 05:39:09;;;;;;;61.38;29.35;;;-3.20;98.10;;;;;;5074587;28;20210;-48
2021/12/27 05:41:35;;;;;;;48.05;28.85;;;-3.20;98.10;;;;;;5074640;28;20674;-47
2021/12/27 05:44:02;;;;;;;49.53;26.67;;;-3.20;98.10;;;;;;5074559;28;20225;-48
2021/12/27 05:46:30;;;;;;;57.60;31.00;;;-3.20;98.10;;;;;;5074334;28;20219;-48
2021/12/27 05:48:57;;;;;;;51.83;29.50;;;-3.10;98.10;;;;;;5074464;28;20242;-47
2021/12/27 05:51:23;;;;;;;58.17;29.38;;;-3.10;98.10;;;;;;5057119;28;20191;-48
2021/12/27 05:53:50;;;;;;;49.58;30.00;;;-3.00;98.10;;;;;;5074522;28;20614;-48
2021/12/27 05:56:18;;;;;;;55.70;30.23;;;-3.00;98.10;;;;;;5055975;28;20234;-48
2021/12/27 05:58:45;;;;;;;50.95;28.35;;;-3.00;98.00;;;;;;5073852;28;20248;-48
2021/12/27 06:01:12;;;;;;;62.80;29.95;;;-2.90;98.10;;;;;;5074114;28;20286;-47
2021/12/27 06:03:42;;;;;;;48.35;27.77;;;-2.80;98.00;;;;;;5056167;28;20195;-47
2021/12/27 06:06:10;;;;;;;54.10;27.48;;;-2.90;97.90;;;;;;5073815;28;20220;-47
2021/12/27 06:08:37;;;;;;;49.10;28.73;;;-2.90;97.90;;;;;;5073648;28;20192;-47
2021/12/27 06:11:06;;;;;;;49.05;28.50;;;-2.80;98.00;;;;;;5056033;28;20202;-48
2021/12/27 06:13:32;;;;;;;46.35;28.23;;;-2.80;98.10;;;;;;5055972;28;20255;-48
2021/12/27 06:15:59;;;;;;;50.05;27.55;;;-2.80;97.90;;;;;;5055939;28;20648;-47
2021/12/27 06:18:26;;;;;;;52.22;30.33;;;-2.70;98.00;;;;;;5054294;28;20203;-47
2021/12/27 06:20:54;;;;;;;56.88;29.90;;;-2.70;97.90;;;;;;5073802;28;20196;-47
2021/12/27 06:23:21;;;;;;;58.60;29.33;;;-2.70;97.90;;;;;;5073913;28;20241;-48
2021/12/27 06:25:48;;;;;;;56.10;28.20;;;-2.50;98.00;;;;;;5073609;28;20202;-47
2021/12/27 06:28:16;;;;;;;54.80;27.65;;;-2.60;97.90;;;;;;5073115;28;20737;-48
2021/12/27 06:30:43;;;;;;;51.33;29.45;;;-2.60;97.90;;;;;;5055553;28;20199;-48
2021/12/27 06:33:10;;;;;;;56.38;29.52;;;-2.60;97.80;;;;;;5055326;28;20649;-47
2021/12/27 06:35:37;;;;;;;49.70;28.33;;;-2.60;97.70;;;;;;5074013;28;20587;-47
2021/12/27 06:38:06;;;;;;;52.00;28.27;;;-2.60;97.80;;;;;;5073091;28;20504;-46
2021/12/27 06:40:33;;;;;;;54.80;28.65;;;-2.60;97.80;;;;;;5055477;28;20215;-48
2021/12/27 06:43:00;;;;;;;56.67;29.55;;;-2.60;98.00;;;;;;5055574;28;20226;-48
2021/12/27 06:45:26;;;;;;;51.88;28.33;;;-2.60;98.10;;;;;;5055657;28;20234;-47
2021/12/27 06:47:53;;;;;;;46.88;27.60;;;-2.60;98.20;;;;;;5072779;28;20769;-48
2021/12/27 06:50:23;;;;;;;57.40;30.65;;;-2.50;98.30;;;;;;5073454;28;20268;-47
2021/12/27 06:52:50;;;;;;;50.08;27.52;;;-2.50;98.20;;;;;;5055053;28;20305;-48
2021/12/27 06:55:18;;;;;;;57.65;31.58;;;-2.50;98.30;;;;;;5051880;28;20234;-47
2021/12/27 06:57:45;;;;;;;57.53;29.30;;;-2.50;98.30;;;;;;5052462;28;20251;-47
2021/12/27 07:00:14;;;;;;;55.85;29.90;;;-2.50;98.40;;;;;;5053000;28;20200;-48
2021/12/27 07:02:42;;;;;;;51.30;28.33;;;-2.50;98.40;;;;;;5034906;28;20234;-47
2021/12/27 07:05:09;;;;;;;52.03;28.02;;;-2.40;98.60;;;;;;5057688;28;20333;-46
2021/12/27 07:07:36;;;;;;;52.40;28.27;;;-2.40;98.50;;;;;;5054763;28;20250;-47
2021/12/27 07:10:03;;;;;;;50.25;29.45;;;-2.40;98.60;;;;;;5072651;28;20199;-47
2021/12/27 07:12:31;;;;;;;52.25;30.35;;;-2.40;98.70;;;;;;5054812;28;20298;-47
2021/12/27 07:14:58;;;;;;;59.03;30.38;;;-2.30;98.80;;;;;;5072965;28;20191;-46
2021/12/27 07:17:24;;;;;;;54.25;28.95;;;-2.30;98.90;;;;;;5072361;28;20219;-48
2021/12/27 07:19:51;;;;;;;49.97;29.42;;;-2.30;98.90;;;;;;5072544;28;20576;-46
2021/12/27 07:22:18;;;;;;;49.72;27.08;;;-2.30;98.90;;;;;;5054656;28;20226;-47
2021/12/27 07:24:44;;;;;;;57.40;30.65;;;-2.30;99.00;;;;;;5072651;28;20222;-47
2021/12/27 07:27:11;;;;;;;52.28;28.83;;;-2.20;99.00;;;;;;5072286;28;20327;-47
2021/12/27 07:29:40;;;;;;;51.13;27.40;;;-2.20;99.00;;;;;;5053928;28;20643;-46
2021/12/27 07:32:07;;;;;;;47.47;26.98;;;-2.10;99.10;;;;;;5072645;28;20622;-48
2021/12/27 07:34:34;;;;;;;53.05;29.50;;;-2.10;99.20;;;;;;5054750;28;20207;-47
2021/12/27 07:37:01;;;;;;;49.35;27.92;;;-2.10;99.20;;;;;;5072674;28;20297;-46
2021/12/27 07:39:28;;;;;;;61.13;29.13;;;-2.10;99.30;;;;;;5054791;28;20628;-46
2021/12/27 07:41:55;;;;;;;53.00;27.90;;;-2.10;99.30;;;;;;5073624;28;20195;-47
2021/12/27 07:44:21;;;;;;;49.17;29.60;;;-2.10;99.40;;;;;;5054901;28;20238;-47
2021/12/27 07:46:51;;;;;;;52.50;29.42;;;-2.10;99.50;;;;;;5072067;28;20215;-48
2021/12/27 07:49:19;;;;;;;52.95;28.90;;;-2.10;99.50;;;;;;5071695;28;20199;-48
2021/12/27 07:51:46;;;;;;;58.47;30.20;;;-2.00;99.60;;;;;;5072145;28;20278;-47
2021/12/27 07:54:13;;;;;;;54.45;29.00;;;-2.00;99.70;;;;;;5072017;28;20573;-48
2021/12/27 07:56:40;;;;;;;54.38;28.75;;;-2.00;99.70;;;;;;5071874;28;20600;-48
2021/12/27 07:59:07;;;;;;;57.45;31.38;;;-2.00;99.70;;;;;;5071490;28;20278;-47
2021/12/27 08:01:35;;;;;;;50.38;29.15;;;-2.00;99.70;;;;;;5071774;28;20199;-48
2021/12/27 08:04:04;;;;;;;50.42;28.92;;;-2.00;99.80;;;;;;5071743;28;20586;-48
2021/12/27 08:06:31;;;;;;;66.75;29.95;;;-2.00;99.80;;;;;;5071318;28;20215;-47
2021/12/27 08:08:58;;;;;;;49.15;28.17;;;-1.90;99.90;;;;;;5070997;28;20257;-47
2021/12/27 08:11:27;;;;;;;52.25;28.77;;;-1.90;99.90;;;;;;5053834;28;20323;-48
2021/12/27 08:13:54;;;;;;;50.83;30.08;;;-1.80;99.90;;;;;;5071584;28;20262;-47
2021/12/27 08:16:24;;;;;;;55.00;29.13;;;-1.90;99.90;;;;;;5071754;28;20298;-47
2021/12/27 08:18:53;;;;;;;56.20;29.88;;;-1.80;99.90;;;;;;5071333;28;20567;-47
2021/12/27 08:21:23;;;;;;;48.55;27.13;;;-1.80;99.90;;;;;;5071636;28;20572;-48
2021/12/27 08:23:50;;;;;;;51.83;29.50;;;-1.80;99.90;;;;;;5053485;28;20635;-48
2021/12/27 08:26:18;;;;;;;55.10;28.20;;;-1.70;99.90;;;;;;5053349;28;20317;-47
2021/12/27 08:28:46;;;;;;;56.20;30.42;;;-1.70;99.90;;;;;;5052722;28;20667;-47
2021/12/27 08:31:13;;;;;;;58.78;30.08;;;-1.70;99.90;;;;;;5053559;28;20231;-49
2021/12/27 08:33:40;;;;;;;54.45;30.08;;;-1.60;99.90;;;;;;5071469;28;20229;-49
2021/12/27 08:36:06;;;;;;;55.85;28.00;;;-1.60;99.90;;;;;;5053657;28;20288;-47
2021/12/27 08:38:37;;;;;;;54.47;29.05;;;-1.60;99.90;;;;;;5071107;28;20199;-47
2021/12/27 08:41:04;;;;;;;53.55;28.50;;;-1.50;99.90;;;;;;5070486;28;20187;-47
2021/12/27 08:43:31;;;;;;;52.08;29.30;;;-1.50;99.90;;;;;;5053240;28;20278;-47
2021/12/27 08:45:59;;;;;;;52.15;29.63;;;-1.40;99.90;;;;;;5071071;28;20314;-47
2021/12/27 08:48:27;;;;;;;50.38;30.90;;;-1.40;99.90;;;;;;5052758;28;20203;-48
2021/12/27 08:50:54;;;;;;;52.05;29.42;;;-1.40;99.90;;;;;;5071297;28;20214;-49
2021/12/27 08:53:21;;;;;;;58.90;26.65;;;-1.40;99.90;;;;;;5053099;28;20247;-46
2021/12/27 08:55:49;;;;;;;53.17;28.88;;;-1.40;99.90;;;;;;5049661;28;20266;-46
2021/12/27 08:58:15;;;;;;;49.38;27.67;;;-1.30;99.90;;;;;;5032642;28;20576;-49
2021/12/27 09:00:43;;;;;;;49.03;28.65;;;-1.30;99.90;;;;;;5050833;28;20191;-49
2021/12/27 09:03:11;;;;;;;52.28;28.00;;;-1.30;99.90;;;;;;5039944;28;20603;-48
2021/12/27 09:05:43;;;;;;;61.28;31.00;;;-1.20;99.90;;;;;;5070742;28;20206;-48
2021/12/27 09:08:10;;;;;;;48.30;28.42;;;-1.20;99.90;;;;;;5052723;28;20241;-48
2021/12/27 09:10:37;;;;;;;54.13;30.33;;;-1.10;99.90;;;;;;5052973;28;20294;-48
2021/12/27 09:13:05;;;;;;;50.47;26.75;;;-1.10;99.90;;;;;;5069308;28;20215;-48
2021/12/27 09:15:33;;;;;;;52.65;30.45;;;-1.00;99.90;;;;;;5069999;28;20287;-48
2021/12/27 09:18:00;;;;;;;51.75;27.30;;;-1.00;99.90;;;;;;5070334;28;20753;-49
2021/12/27 09:20:29;;;;;;;52.30;29.15;;;-1.00;99.90;;;;;;5070876;28;20207;-49
2021/12/27 09:22:56;;;;;;;50.20;27.92;;;-0.90;99.90;;;;;;5052865;28;20291;-49
2021/12/27 09:25:23;;;;;;;52.75;27.55;;;-0.90;99.90;;;;;;5052512;28;20298;-48
2021/12/27 09:27:50;;;;;;;52.20;28.55;;;-0.80;99.90;;;;;;5070295;28;20234;-49
2021/12/27 09:30:18;;;;;;;51.08;28.38;;;-0.80;99.90;;;;;;5052787;28;20254;-49
2021/12/27 09:32:45;;;;;;;49.28;27.30;;;-0.70;99.90;;;;;;5070978;28;20637;-50
2021/12/27 09:35:12;;;;;;;55.63;29.10;;;-0.70;99.90;;;;;;5052764;28;20298;-47
2021/12/27 09:37:39;;;;;;;54.15;30.08;;;-0.70;99.90;;;;;;5052285;28;20231;-48
2021/12/27 09:40:09;;;;;;;50.08;27.80;;;-0.60;99.90;;;;;;5070810;28;20576;-48
2021/12/27 09:42:36;;;;;;;49.58;28.08;;;-0.60;99.90;;;;;;5052558;28;20204;-48
2021/12/27 09:45:06;;;;;;;49.53;28.50;;;-0.60;99.90;;;;;;5070554;28;20278;-48
2021/12/27 09:47:35;;;;;;;47.08;28.83;;;-0.60;99.90;;;;;;5067777;28;20227;-48
2021/12/27 09:50:04;;;;;;;43.22;26.33;;;-0.60;99.90;;;;;;5052292;28;20314;-48
2021/12/27 09:52:32;;;;;;;54.05;30.13;;;-0.60;99.90;;;;;;5071249;28;20234;-48
2021/12/27 09:55:03;;;;;;;46.15;25.95;;;-0.50;99.90;;;;;;5055657;28;20272;-48
2021/12/27 09:57:30;;;;;;;49.03;28.38;;;-0.50;99.90;;;;;;5056491;28;20277;-49
2021/12/27 09:59:57;;;;;;;53.28;27.10;;;-0.50;99.90;;;;;;5074655;28;20191;-48
2021/12/27 10:02:25;;;;;;;49.97;28.02;;;-0.50;99.90;;;;;;5056075;28;20203;-49
2021/12/27 10:04:54;;;;;;;56.33;30.33;;;-0.30;99.90;;;;;;5073825;28;20228;-48
2021/12/27 10:07:22;;;;;;;46.83;26.58;;;-0.50;99.90;;;;;;5055742;28;20238;-48
2021/12/27 10:09:54;;;;;;;52.85;28.23;;;-0.50;99.90;;;;;;5073624;28;20638;-48
2021/12/27 10:12:22;;;;;;;49.92;28.85;;;-0.40;99.90;;;;;;5073865;28;20380;-48
2021/12/27 10:14:55;;;;;;;49.47;27.63;;;-0.40;99.90;;;;;;5073245;28;20223;-48
2021/12/27 10:17:23;;;;;;;50.85;30.08;;;-0.40;99.90;;;;;;5073737;28;20222;-47
2021/12/27 10:19:54;;;;;;;45.35;27.77;;;-0.40;99.90;;;;;;5073497;28;20278;-47
2021/12/27 10:22:21;;;;;;;46.03;27.83;;;-0.30;99.90;;;;;;5072961;28;20261;-48
2021/12/27 10:24:50;;;;;;;46.47;27.08;;;-0.30;99.90;;;;;;5073581;28;20664;-48
2021/12/27 10:27:19;;;;;;;45.97;27.33;;;-0.30;99.90;;;;;;5055322;28;20230;-48
2021/12/27 10:29:46;;;;;;;51.15;27.92;;;-0.30;99.90;;;;;;5054990;28;20222;-47
2021/12/27 10:32:14;;;;;;;48.70;28.33;;;-0.20;99.90;;;;;;5073266;28;20278;-49
2021/12/27 10:34:43;;;;;;;48.47;27.38;;;-0.20;99.90;;;;;;5072865;28;20216;-47
2021/12/27 10:37:15;;;;;;;46.63;27.80;;;-0.20;99.90;;;;;;5055225;28;20228;-47
2021/12/27 10:39:54;;;;;;;46.50;27.45;;;-0.20;99.90;;;;;;5072883;28;20196;-48
2021/12/27 10:42:27;;;;;;;47.20;28.38;;;-0.10;99.90;;;;;;5055447;28;20233;-48
2021/12/27 10:44:57;;;;;;;47.35;27.50;;;-0.10;99.90;;;;;;5073064;28;20193;-48
2021/12/27 10:47:37;;;;;;;50.03;27.67;;;0.00;99.90;;;;;;5073230;28;20375;-48
2021/12/27 10:50:11;;;;;;;45.35;27.38;;;0.00;99.90;;;;;;5054823;28;20232;-47
2021/12/27 10:52:54;;;;;;;47.05;26.48;;;0.10;99.90;;;;;;5055241;28;20207;-47
2021/12/27 10:55:25;;;;;;;49.95;26.20;;;0.20;99.90;;;;;;5072345;28;20225;-47
2021/12/27 10:57:53;;;;;;;55.45;28.52;;;0.30;99.90;;;;;;5072532;28;20696;-48
2021/12/27 11:00:29;;;;;;;45.28;26.75;;;0.30;99.80;;;;;;5073042;28;20215;-48
2021/12/27 11:02:58;;;;;;;52.88;27.33;;;0.40;99.90;;;;;;5072552;28;20275;-48
2021/12/27 11:05:26;;;;;;;46.83;28.33;;;0.50;99.80;;;;;;5054192;28;20276;-48
2021/12/27 11:07:59;;;;;;;58.10;28.35;;;0.40;99.70;;;;;;5072120;28;20233;-47
2021/12/27 11:10:26;;;;;;;54.97;27.30;;;0.40;99.60;;;;;;5072736;28;20743;-48
2021/12/27 11:12:53;;;;;;;49.78;28.15;;;0.30;99.50;;;;;;5072583;28;20281;-47
2021/12/27 11:15:22;;;;;;;43.15;27.13;;;0.30;99.60;;;;;;5072446;28;20234;-48
2021/12/27 11:17:50;;;;;;;45.58;28.90;;;0.30;99.60;;;;;;5054195;28;20236;-48
2021/12/27 11:20:17;;;;;;;50.25;28.67;;;0.20;99.70;;;;;;5072537;28;20720;-48
2021/12/27 11:22:46;;;;;;;51.05;26.98;;;0.30;99.80;;;;;;5054277;28;20219;-48
2021/12/27 11:25:28;;;;;;;53.00;26.67;;;0.30;99.90;;;;;;5054581;28;20209;-48
2021/12/27 11:27:57;;;;;;;49.97;25.75;;;0.30;99.80;;;;;;5072484;28;20256;-48
2021/12/27 11:30:30;;;;;;;48.00;26.27;;;0.30;99.90;;;;;;5054736;28;20213;-48
2021/12/27 11:33:12;;;;;;;48.67;26.35;;;0.40;99.90;;;;;;5054363;28;20669;-48
2021/12/27 11:36:01;;;;;;;46.50;27.40;;;0.50;99.90;;;;;;5038464;28;20209;-47
2021/12/27 11:38:30;;;;;;;50.58;26.10;;;0.50;99.90;;;;;;5034046;28;20201;-47
2021/12/27 11:40:59;;;;;;;44.67;26.60;;;0.50;99.80;;;;;;5034635;28;20223;-47
2021/12/27 11:43:47;;;;;;;41.38;25.60;;;0.60;99.90;;;;;;5033651;28;20309;-48
2021/12/27 11:46:14;;;;;;;46.85;26.77;;;0.60;99.90;;;;;;5034306;28;20586;-48
2021/12/27 11:48:48;;;;;;;49.22;27.92;;;0.60;99.90;;;;;;5068033;28;20243;-47
2021/12/27 11:51:16;;;;;;;46.25;26.08;;;0.70;99.90;;;;;;5054070;28;20610;-48
2021/12/27 11:53:48;;;;;;;46.15;25.48;;;0.70;99.80;;;;;;5071744;28;20623;-48
2021/12/27 11:56:46;;;;;;;45.85;27.35;;;0.70;99.80;;;;;;5053772;28;20583;-49
2021/12/27 11:59:36;;;;;;;42.83;26.25;;;0.80;99.80;;;;;;5071238;28;20216;-48
2021/12/27 12:02:27;;;;;;;48.60;28.10;;;0.80;99.80;;;;;;5071504;28;20418;-48
2021/12/27 12:04:56;;;;;;;41.72;26.25;;;0.90;99.90;;;;;;5069709;28;20279;-46
2021/12/27 12:07:49;;;;;;;43.80;25.10;;;0.90;99.80;;;;;;5053976;28;20679;-47
2021/12/27 12:10:18;;;;;;;50.78;26.95;;;0.90;99.70;;;;;;5053742;28;20206;-48
2021/12/27 12:13:17;;;;;;;43.60;25.13;;;1.10;99.90;;;;;;5054028;28;20209;-47
2021/12/27 12:16:14;;;;;;;58.58;26.27;;;1.00;99.80;;;;;;5051931;28;20220;-49
2021/12/27 12:19:04;;;;;;;44.55;25.80;;;1.00;99.70;;;;;;5031135;28;20233;-51
2021/12/27 12:21:40;;;;;;;42.25;26.08;;;1.00;99.70;;;;;;5045068;28;20238;-47
2021/12/27 12:24:16;;;;;;;46.67;27.25;;;1.00;99.70;;;;;;5054093;28;20242;-47
2021/12/27 12:26:54;;;;;;;49.35;26.15;;;1.00;99.70;;;;;;5071436;28;20222;-46
2021/12/27 12:29:24;;;;;;;46.92;27.05;;;1.10;99.70;;;;;;5071707;28;20194;-47
2021/12/27 12:31:56;;;;;;;41.80;25.42;;;1.10;99.70;;;;;;5071410;28;20280;-47
2021/12/27 12:34:24;;;;;;;45.60;26.60;;;1.10;99.70;;;;;;5071351;28;20207;-46
2021/12/27 12:36:54;;;;;;;45.78;25.60;;;1.20;99.70;;;;;;5071332;28;20219;-47